METAR AND TAF INFORMATION
METAR FOR EGNM
ADDS - METARS form results

(2036 UTC 03 August 2021)
Data provider http://aviationweather.gov/metar/data/
 
METAR text: EGNM 032020Z 28004KT CAVOK 16/09 Q1013
Conditions at: EGNM (LEEDS AND BRADFO, GB) observed 2020 UTC 03 August 2021
Temperature: 16.0°C (61°F)
Dewpoint: 9.0°C (48°F) [RH = 63%]
Pressure (altimeter): 29.91 inches Hg (1013.0 mb)
Winds: from the W (280 degrees) at 5 MPH (4 knots; 2.1 m/s)
Visibility: 6 or more miles (10+ km)
Ceiling: ceiling and visibility are OK
Clouds: unknown
Weather: no significant weather observed at this time

METAR text: EGNM 031950Z 29006KT CAVOK 16/10 Q1012
Conditions at: EGNM (LEEDS AND BRADFO, GB) observed 1950 UTC 03 August 2021
Temperature: 16.0°C (61°F)
Dewpoint: 10.0°C (50°F) [RH = 68%]
Pressure (altimeter): 29.88 inches Hg (1012.0 mb)
Winds: from the WNW (290 degrees) at 7 MPH (6 knots; 3.1 m/s)
Visibility: 6 or more miles (10+ km)
Ceiling: ceiling and visibility are OK
Clouds: unknown
Weather: no significant weather observed at this time

Forecast for: EGNM (LEEDS AND BRADFO, GB)
Text: TAF EGNM 031659Z 0318/0418 VRB04KT 9999 FEW045
Forecast period: 1800 UTC 03 August 2021 to 1800 UTC 04 August 2021
Forecast type: FROM: standard forecast or significant change
Winds: variable direction winds at 5 MPH (4 knots; 2.1 m/s)
Visibility: 6 or more miles (10+ km)
Ceiling: at least 12,000 feet AGL
Clouds: few clouds at 4500 feet AGL
Weather: no significant weather forecast for this period
Text: TEMPO 0410/0418 6000 SHRA
Forecast period: 1000 to 1800 UTC 04 August 2021
Forecast type: TEMPORARY: The following changes expected for less than half the time period
Visibility: 4 miles (6 km)
Ceiling: unknown
Clouds: missing
Weather: SHRA  (rain showers)
Text: PROB30
Forecast period: 1000 to 1800 UTC 04 August 2021
Forecast type: TEMPORARY: The following changes expected for less than half the time period
Visibility: 2.49 miles (4.01 km)
Ceiling: unknown
Clouds: missing
Weather: +SHRA  (heavy rain showers)

 AIRPORT MAP

 RUNWAY INFORMATION
Runway 14 Runway length 7382 ft Runway width 150 ft
Runway elevation 673 ft Runway displaced threshold 958 ft Runway heading 138
Runway 32 Runway length 7382 ft Runway width 150 ft
Runway elevation 662 ft Runway displaced threshold 962 ft Runway heading 318

 AIRPORT FREQUENCIES
Type APP Name APP Frequency 123.75 MHZ
Type ATIS Name ATIS Frequency 118.025 MHZ
Type TWR Name TWR Frequency 120.3 MHZ
Type ILS Rw 32/ Name Frequency 110.9 MHZ

 AIRPORT NEAR NAVIGATION AIDS
Type NDB Name Leeds Bradford Frequency 403 KHZ





Powered by Virtual Airlines Manager

Maps by Rafael Santos